createdAt,value
2018-05-13T00:00:05.253Z,18.10
2018-05-13T00:02:32.689Z,18.10
2018-05-13T00:05:00.134Z,18.00
2018-05-13T00:07:28.351Z,17.90
2018-05-13T00:09:55.796Z,17.90
2018-05-13T00:12:23.242Z,17.90
2018-05-13T00:14:50.712Z,17.90
2018-05-13T00:17:18.130Z,18.00
2018-05-13T00:19:45.571Z,18.00
2018-05-13T00:22:13.017Z,18.10
2018-05-13T00:24:40.454Z,18.10
2018-05-13T00:27:07.895Z,18.00
2018-05-13T00:29:35.348Z,18.00
2018-05-13T00:32:02.795Z,18.10
2018-05-13T00:34:30.276Z,18.10
2018-05-13T00:36:57.769Z,18.10
2018-05-13T00:39:25.224Z,18.10
2018-05-13T00:41:52.645Z,18.00
2018-05-13T00:44:20.094Z,18.00
2018-05-13T00:46:47.536Z,18.00
2018-05-13T00:49:14.967Z,18.10
2018-05-13T00:51:43.186Z,18.00
2018-05-13T00:54:32.144Z,18.00
2018-05-13T00:56:59.592Z,18.00
2018-05-13T00:59:27.018Z,18.00
2018-05-13T01:01:54.458Z,18.00
2018-05-13T01:04:21.889Z,18.00
2018-05-13T01:06:49.316Z,17.90
2018-05-13T01:09:16.771Z,18.00
2018-05-13T01:11:44.209Z,17.90
2018-05-13T01:14:12.408Z,17.90
2018-05-13T01:16:39.851Z,17.80
2018-05-13T01:19:07.287Z,17.90
2018-05-13T01:21:34.730Z,17.90
2018-05-13T01:24:02.185Z,17.90
2018-05-13T01:26:29.631Z,17.90
2018-05-13T01:28:57.061Z,17.80
2018-05-13T01:31:24.522Z,17.80
2018-05-13T01:33:51.957Z,17.80
2018-05-13T01:36:19.405Z,17.90
2018-05-13T01:38:46.858Z,17.80
2018-05-13T01:41:15.066Z,17.80
2018-05-13T01:43:42.535Z,17.70
2018-05-13T01:46:09.969Z,17.70
2018-05-13T01:48:37.420Z,17.70
2018-05-13T01:51:04.861Z,17.70
2018-05-13T01:53:32.295Z,17.70
2018-05-13T01:55:59.730Z,17.60
2018-05-13T01:58:27.190Z,17.60
2018-05-13T02:00:54.635Z,17.60
2018-05-13T02:03:22.083Z,17.60
2018-05-13T02:05:49.557Z,17.50
2018-05-13T02:08:16.987Z,17.50
2018-05-13T02:10:44.478Z,17.50
2018-05-13T02:13:11.919Z,17.50
2018-05-13T02:15:39.375Z,17.40
2018-05-13T02:18:06.823Z,17.40
2018-05-13T02:20:34.355Z,17.30
2018-05-13T02:23:01.790Z,17.30
2018-05-13T02:25:29.252Z,17.30
2018-05-13T02:27:56.698Z,17.30
2018-05-13T02:30:24.135Z,17.20
2018-05-13T02:32:51.622Z,17.20
2018-05-13T02:35:19.051Z,17.10
2018-05-13T02:37:46.477Z,17.00
2018-05-13T02:40:13.933Z,17.00
2018-05-13T02:42:41.447Z,17.00
2018-05-13T02:45:08.895Z,17.00
2018-05-13T02:47:36.319Z,17.00
2018-05-13T02:50:03.773Z,17.00
2018-05-13T02:52:31.234Z,16.90
2018-05-13T02:54:58.674Z,16.90
2018-05-13T02:57:26.143Z,16.80
2018-05-13T02:59:53.591Z,16.80
2018-05-13T03:02:21.028Z,16.80
2018-05-13T03:04:48.582Z,16.80
2018-05-13T03:07:16.014Z,16.80
2018-05-13T03:09:43.468Z,16.70
2018-05-13T03:12:10.894Z,16.70
2018-05-13T03:14:38.337Z,16.60
2018-05-13T03:17:05.777Z,16.50
2018-05-13T03:19:33.215Z,16.40
2018-05-13T03:22:01.423Z,16.30
2018-05-13T03:24:28.859Z,16.20
2018-05-13T03:26:56.322Z,16.30
2018-05-13T03:29:23.767Z,16.20
2018-05-13T03:31:51.217Z,16.10
2018-05-13T03:34:18.666Z,16.10
2018-05-13T03:36:46.117Z,16.00
2018-05-13T03:39:13.579Z,16.00
2018-05-13T03:41:41.009Z,15.90
2018-05-13T03:44:08.450Z,15.60
2018-05-13T03:46:35.903Z,15.40
2018-05-13T03:49:03.411Z,15.30
2018-05-13T03:51:30.864Z,15.10
2018-05-13T03:53:58.307Z,15.00
2018-05-13T03:56:25.746Z,14.90
2018-05-13T03:58:53.186Z,15.00
2018-05-13T04:01:20.650Z,15.00
2018-05-13T04:03:48.091Z,15.00
2018-05-13T04:06:15.550Z,15.00
2018-05-13T04:08:54.694Z,15.00
2018-05-13T04:11:34.050Z,15.00
2018-05-13T04:14:13.338Z,15.10
2018-05-13T04:16:40.806Z,15.20
2018-05-13T04:19:08.266Z,15.30
2018-05-13T04:21:35.723Z,15.50
2018-05-13T04:24:03.164Z,15.50
2018-05-13T04:26:30.630Z,15.50
2018-05-13T04:28:58.058Z,15.60
2018-05-13T04:31:25.512Z,15.80
2018-05-13T04:33:52.939Z,15.90
2018-05-13T04:36:20.393Z,15.90
2018-05-13T04:38:47.838Z,16.00
2018-05-13T04:41:15.283Z,16.00
2018-05-13T04:43:42.745Z,16.00
2018-05-13T04:46:10.174Z,15.80
2018-05-13T04:48:37.631Z,15.70
2018-05-13T04:51:05.062Z,15.70
2018-05-13T04:53:33.288Z,15.80
2018-05-13T04:56:00.709Z,15.80
2018-05-13T04:58:28.158Z,15.90
2018-05-13T05:00:55.614Z,15.90
2018-05-13T05:03:23.040Z,16.00
2018-05-13T05:05:50.490Z,16.00
2018-05-13T05:08:17.927Z,16.20
2018-05-13T05:10:45.377Z,16.20
2018-05-13T05:13:12.827Z,16.20
2018-05-13T05:15:40.278Z,16.20
2018-05-13T05:18:07.738Z,16.30
2018-05-13T05:20:35.178Z,16.30
2018-05-13T05:23:02.610Z,16.40
2018-05-13T05:25:30.066Z,16.50
2018-05-13T05:27:57.564Z,16.50
2018-05-13T05:30:24.937Z,16.60
2018-05-13T05:32:52.394Z,16.70
2018-05-13T05:35:19.846Z,16.90
2018-05-13T05:37:47.326Z,17.10
2018-05-13T05:40:14.779Z,17.30
2018-05-13T05:42:42.233Z,17.30
2018-05-13T05:45:09.687Z,17.30
2018-05-13T05:47:37.130Z,17.40
2018-05-13T05:50:04.583Z,17.40
2018-05-13T05:52:32.040Z,17.50
2018-05-13T05:54:59.490Z,17.50
2018-05-13T05:57:26.917Z,17.50
2018-05-13T05:59:54.362Z,17.50
2018-05-13T06:02:21.798Z,17.60
2018-05-13T06:04:49.246Z,17.70
2018-05-13T06:07:17.439Z,17.90
2018-05-13T06:09:44.890Z,17.80
2018-05-13T06:12:12.383Z,17.90
2018-05-13T06:14:39.782Z,18.00
2018-05-13T06:17:07.210Z,18.00
2018-05-13T06:19:34.725Z,18.10
2018-05-13T06:22:02.349Z,18.20
2018-05-13T06:24:29.822Z,18.20
2018-05-13T06:26:57.275Z,18.20
2018-05-13T06:29:24.722Z,18.20
2018-05-13T06:31:52.181Z,18.20
2018-05-13T06:34:19.620Z,18.20
2018-05-13T06:36:47.058Z,18.30
2018-05-13T06:39:14.502Z,18.30
2018-05-13T06:41:41.935Z,18.30
2018-05-13T06:44:09.450Z,18.40
2018-05-13T06:46:36.887Z,18.50
2018-05-13T06:49:05.103Z,18.70
2018-05-13T06:51:32.638Z,18.60
2018-05-13T06:53:59.995Z,18.80
2018-05-13T06:56:27.427Z,18.90
2018-05-13T06:58:54.869Z,18.90
2018-05-13T07:01:22.308Z,18.90
2018-05-13T07:03:49.798Z,18.90
2018-05-13T07:06:17.230Z,18.90
2018-05-13T07:08:44.679Z,19.00
2018-05-13T07:11:12.134Z,18.90
2018-05-13T07:13:39.580Z,19.00
2018-05-13T07:16:07.039Z,19.10
2018-05-13T07:18:34.490Z,19.20
2018-05-13T07:21:01.933Z,19.20
2018-05-13T07:23:29.375Z,19.10
2018-05-13T07:25:56.847Z,19.20
2018-05-13T07:28:24.269Z,19.40
2018-05-13T07:30:51.718Z,19.50
2018-05-13T07:33:19.149Z,19.60
2018-05-13T07:35:46.609Z,19.70
2018-05-13T07:38:14.055Z,19.90
2018-05-13T07:40:41.493Z,20.00
2018-05-13T07:43:08.955Z,20.10
2018-05-13T07:45:36.443Z,20.20
2018-05-13T07:48:03.897Z,20.30
2018-05-13T07:50:31.392Z,20.30
2018-05-13T07:52:58.826Z,20.40
2018-05-13T07:55:26.266Z,20.40
2018-05-13T07:57:53.778Z,20.30
2018-05-13T08:00:21.157Z,20.30
2018-05-13T08:02:48.606Z,20.30
2018-05-13T08:05:16.042Z,20.30
2018-05-13T08:07:43.482Z,20.20
2018-05-13T08:10:11.696Z,20.40
2018-05-13T08:12:39.184Z,20.30
2018-05-13T08:15:06.610Z,20.40
2018-05-13T08:17:34.046Z,20.50
2018-05-13T08:20:01.493Z,20.40
2018-05-13T08:22:28.942Z,20.40
2018-05-13T08:24:56.390Z,20.50
2018-05-13T08:27:23.821Z,20.70
2018-05-13T08:29:51.278Z,20.70
2018-05-13T08:32:18.752Z,20.70
2018-05-13T08:34:46.238Z,20.90
2018-05-13T08:37:13.708Z,21.10
2018-05-13T08:39:41.135Z,21.10
2018-05-13T08:42:08.584Z,21.10
2018-05-13T08:44:36.023Z,21.10
2018-05-13T08:47:03.482Z,21.20
2018-05-13T08:49:30.918Z,21.30
2018-05-13T08:51:58.374Z,21.40
2018-05-13T08:54:25.818Z,21.50
2018-05-13T08:56:53.350Z,21.60
2018-05-13T08:59:20.842Z,21.50
2018-05-13T09:01:48.297Z,21.30
2018-05-13T09:04:15.766Z,21.20
2018-05-13T09:06:43.171Z,21.30
2018-05-13T09:09:10.622Z,21.50
2018-05-13T09:11:38.057Z,21.70
2018-05-13T09:14:05.525Z,21.80
2018-05-13T09:16:32.938Z,21.90
2018-05-13T09:19:00.477Z,22.00
2018-05-13T09:21:27.954Z,22.10
2018-05-13T09:23:55.398Z,21.90
2018-05-13T09:26:22.825Z,22.00
2018-05-13T09:28:50.279Z,22.10
2018-05-13T09:31:18.489Z,22.40
2018-05-13T09:33:45.910Z,22.30
2018-05-13T09:36:13.356Z,22.60
2018-05-13T09:38:40.830Z,22.80
2018-05-13T09:41:08.298Z,22.90
2018-05-13T09:43:35.730Z,23.00
2018-05-13T09:46:03.183Z,23.00
2018-05-13T09:48:30.616Z,23.10
2018-05-13T09:50:58.058Z,23.10
2018-05-13T09:53:25.517Z,23.20
2018-05-13T09:55:52.970Z,23.30
2018-05-13T09:58:20.389Z,23.30
2018-05-13T10:00:47.845Z,23.40
2018-05-13T10:03:15.278Z,23.50
2018-05-13T10:05:42.723Z,23.50
2018-05-13T10:08:10.177Z,23.40
2018-05-13T10:10:37.631Z,23.50
2018-05-13T10:13:05.084Z,23.50
2018-05-13T10:15:32.527Z,23.60
2018-05-13T10:17:59.985Z,23.80
2018-05-13T10:20:27.414Z,23.90
2018-05-13T10:22:55.038Z,23.90
2018-05-13T10:25:22.486Z,24.10
2018-05-13T10:27:49.927Z,24.20
2018-05-13T10:30:17.386Z,24.30
2018-05-13T10:32:44.810Z,24.30
2018-05-13T10:35:12.243Z,24.40
2018-05-13T10:37:39.718Z,24.50
2018-05-13T10:40:07.127Z,24.70
2018-05-13T10:42:34.578Z,24.90
2018-05-13T10:45:02.098Z,25.20
2018-05-13T10:47:29.536Z,25.50
2018-05-13T10:49:56.985Z,25.80
2018-05-13T10:52:24.416Z,26.10
2018-05-13T10:54:51.859Z,26.70
2018-05-13T10:57:19.311Z,27.40
2018-05-13T10:59:46.762Z,27.90
2018-05-13T11:02:14.220Z,28.60
2018-05-13T11:04:41.710Z,29.40
2018-05-13T11:07:09.182Z,30.10
2018-05-13T11:09:36.626Z,30.80
2018-05-13T11:12:04.062Z,31.10
2018-05-13T11:14:31.531Z,31.00
2018-05-13T11:16:58.993Z,30.60
2018-05-13T11:19:26.438Z,30.10
2018-05-13T11:21:53.886Z,29.50
2018-05-13T11:24:21.332Z,29.00
2018-05-13T11:26:48.804Z,28.80
2018-05-13T11:29:16.310Z,29.20
2018-05-13T11:31:43.743Z,30.60
2018-05-13T11:34:11.186Z,31.90
2018-05-13T11:36:38.630Z,33.10
2018-05-13T11:39:06.078Z,33.70
2018-05-13T11:41:33.528Z,34.60
2018-05-13T11:44:00.953Z,35.60
2018-05-13T11:46:29.174Z,37.30
2018-05-13T11:48:56.661Z,37.10
2018-05-13T11:51:24.093Z,36.70
2018-05-13T11:53:51.546Z,36.80
2018-05-13T11:56:18.984Z,38.20
2018-05-13T11:58:46.410Z,40.20
2018-05-13T12:01:14.626Z,43.30
2018-05-13T12:03:42.074Z,43.20
2018-05-13T12:06:09.555Z,44.20
2018-05-13T12:08:36.999Z,44.50
2018-05-13T12:11:04.457Z,44.70
2018-05-13T12:13:32.082Z,44.10
2018-05-13T12:15:59.526Z,42.70
2018-05-13T12:18:27.749Z,43.30
2018-05-13T12:20:55.288Z,43.30
2018-05-13T12:23:22.653Z,44.90
2018-05-13T12:25:50.095Z,46.70
2018-05-13T12:28:18.319Z,48.70
2018-05-13T12:30:45.770Z,48.60
2018-05-13T12:33:13.201Z,48.60
2018-05-13T12:35:40.621Z,47.10
2018-05-13T12:38:08.855Z,42.50
2018-05-13T12:40:36.239Z,42.40
2018-05-13T12:43:03.741Z,40.60
2018-05-13T12:45:31.167Z,39.00
2018-05-13T12:47:58.623Z,37.80
2018-05-13T12:50:26.058Z,36.70
2018-05-13T12:52:53.507Z,36.90
2018-05-13T12:55:20.932Z,37.20
2018-05-13T12:57:48.384Z,37.00
2018-05-13T13:00:15.831Z,37.90
2018-05-13T13:02:43.292Z,39.60
2018-05-13T13:05:10.720Z,41.60
2018-05-13T13:07:38.999Z,45.50
2018-05-13T13:10:06.370Z,45.40
2018-05-13T13:12:33.794Z,47.00
2018-05-13T13:15:02.050Z,48.90
2018-05-13T13:17:29.475Z,48.80
2018-05-13T13:19:57.115Z,49.90
2018-05-13T13:22:24.530Z,51.00
2018-05-13T13:24:51.999Z,52.10
2018-05-13T13:27:19.433Z,52.80
2018-05-13T13:29:46.893Z,53.40
2018-05-13T13:32:14.344Z,54.30
2018-05-13T13:34:41.795Z,54.00
2018-05-13T13:37:09.233Z,53.40
2018-05-13T13:39:36.658Z,53.40
2018-05-13T13:42:04.227Z,54.10
2018-05-13T13:44:31.682Z,54.30
2018-05-13T13:46:59.144Z,55.20
2018-05-13T13:49:26.588Z,55.50
2018-05-13T13:51:54.055Z,55.50
2018-05-13T13:54:21.479Z,55.20
2018-05-13T13:56:48.935Z,53.40
2018-05-13T13:59:16.378Z,52.50
2018-05-13T14:01:43.834Z,52.50
2018-05-13T14:04:11.275Z,53.20
2018-05-13T14:06:38.713Z,53.40
2018-05-13T14:09:06.130Z,53.00
2018-05-13T14:11:34.344Z,53.10
2018-05-13T14:14:01.791Z,53.20
2018-05-13T14:16:29.212Z,53.70
2018-05-13T14:18:56.643Z,54.10
2018-05-13T14:21:24.083Z,54.10
2018-05-13T14:23:51.701Z,53.90
2018-05-13T14:26:19.032Z,54.00
2018-05-13T14:28:46.468Z,54.40
2018-05-13T14:31:13.906Z,55.10
2018-05-13T14:33:41.360Z,55.30
2018-05-13T14:36:08.822Z,54.00
2018-05-13T14:38:36.250Z,51.20
2018-05-13T14:41:03.797Z,48.30
2018-05-13T14:43:31.177Z,45.50
2018-05-13T14:45:58.756Z,43.00
2018-05-13T14:48:26.210Z,40.80
2018-05-13T14:50:54.424Z,37.40
2018-05-13T14:53:21.859Z,37.20
2018-05-13T14:55:49.319Z,36.10
2018-05-13T14:58:16.746Z,35.00
2018-05-13T15:00:44.203Z,33.90
2018-05-13T15:03:11.661Z,33.00
2018-05-13T15:05:39.118Z,32.30
2018-05-13T15:08:06.718Z,31.80
2018-05-13T15:10:34.182Z,31.30
2018-05-13T15:13:01.618Z,30.80
2018-05-13T15:15:29.068Z,30.40
2018-05-13T15:17:56.504Z,29.40
2018-05-13T15:20:23.983Z,28.20
2018-05-13T15:22:51.417Z,27.10
2018-05-13T15:25:18.882Z,25.90
2018-05-13T15:27:46.335Z,23.60
2018-05-13T15:30:13.866Z,22.00
2018-05-13T15:32:41.317Z,20.70
2018-05-13T15:35:08.766Z,19.90
2018-05-13T15:37:36.208Z,19.30
2018-05-13T15:40:03.652Z,18.70
2018-05-13T15:42:31.149Z,18.10
2018-05-13T15:44:58.560Z,17.70
2018-05-13T15:47:25.987Z,17.70
2018-05-13T15:49:53.490Z,17.70
2018-05-13T15:52:20.968Z,17.70
2018-05-13T15:54:48.425Z,17.90
2018-05-13T15:57:15.863Z,17.90
2018-05-13T15:59:43.318Z,18.00
2018-05-13T16:02:10.782Z,18.20
2018-05-13T16:04:38.244Z,18.40
2018-05-13T16:07:05.686Z,18.60
2018-05-13T16:09:33.148Z,18.90
2018-05-13T16:12:00.584Z,18.90
2018-05-13T16:14:28.103Z,19.20
2018-05-13T16:16:55.549Z,19.40
2018-05-13T16:19:22.982Z,19.50
2018-05-13T16:21:50.434Z,19.40
2018-05-13T16:24:17.882Z,19.30
2018-05-13T16:26:45.334Z,19.20
2018-05-13T16:29:12.784Z,19.30
2018-05-13T16:31:40.231Z,19.60
2018-05-13T16:34:07.681Z,19.80
2018-05-13T16:36:35.127Z,20.00
2018-05-13T16:39:02.584Z,20.30
2018-05-13T16:41:30.062Z,20.70
2018-05-13T16:43:57.514Z,21.90
2018-05-13T16:46:24.983Z,22.60
2018-05-13T16:48:52.399Z,22.60
2018-05-13T16:51:19.843Z,22.50
2018-05-13T16:53:47.283Z,22.20
2018-05-13T16:56:15.504Z,21.40
2018-05-13T16:58:42.996Z,21.30
2018-05-13T17:01:10.450Z,21.10
2018-05-13T17:03:37.910Z,20.90
2018-05-13T17:06:05.367Z,21.10
2018-05-13T17:08:32.814Z,21.50
2018-05-13T17:11:00.291Z,22.00
2018-05-13T17:13:27.738Z,22.30
2018-05-13T17:15:55.184Z,22.40
2018-05-13T17:18:22.659Z,22.40
2018-05-13T17:20:50.086Z,22.50
2018-05-13T17:23:17.534Z,22.50
2018-05-13T17:25:45.047Z,22.60
2018-05-13T17:28:12.490Z,22.70
2018-05-13T17:30:40.790Z,22.80
2018-05-13T17:33:08.221Z,22.90
2018-05-13T17:35:35.662Z,22.90
2018-05-13T17:38:03.121Z,22.90
2018-05-13T17:40:30.567Z,22.90
2018-05-13T17:42:58.070Z,23.00
2018-05-13T17:45:25.519Z,22.90
2018-05-13T17:47:53.821Z,22.80
2018-05-13T17:50:21.179Z,22.80
2018-05-13T17:52:48.610Z,22.80
2018-05-13T17:55:16.041Z,22.40
2018-05-13T17:57:43.494Z,21.90
2018-05-13T18:00:10.922Z,21.30
2018-05-13T18:02:38.363Z,20.70
2018-05-13T18:05:05.795Z,20.50
2018-05-13T18:07:33.242Z,20.40
2018-05-13T18:10:00.683Z,20.30
2018-05-13T18:12:28.142Z,20.30
2018-05-13T18:14:55.593Z,20.20
2018-05-13T18:17:23.062Z,20.00
2018-05-13T18:19:50.491Z,19.90
2018-05-13T18:22:17.955Z,19.80
2018-05-13T18:24:45.508Z,19.80
2018-05-13T18:27:12.855Z,19.80
2018-05-13T18:29:40.289Z,19.60
2018-05-13T18:32:07.771Z,19.40
2018-05-13T18:34:35.227Z,19.30
2018-05-13T18:37:02.679Z,19.10
2018-05-13T18:39:30.117Z,18.90
2018-05-13T18:41:57.567Z,18.70
2018-05-13T18:44:25.016Z,18.50
2018-05-13T18:46:53.219Z,18.20
2018-05-13T18:49:20.659Z,18.20
2018-05-13T18:51:48.087Z,18.00
2018-05-13T18:54:15.537Z,17.90
2018-05-13T18:56:42.974Z,17.80
2018-05-13T18:59:10.474Z,17.60
2018-05-13T19:01:37.859Z,17.50
2018-05-13T19:04:05.353Z,17.30
2018-05-13T19:06:32.788Z,17.10
2018-05-13T19:09:00.215Z,17.00
2018-05-13T19:11:27.719Z,17.00
2018-05-13T19:13:55.167Z,17.10
2018-05-13T19:16:22.607Z,17.20
2018-05-13T19:18:50.060Z,17.20
2018-05-13T19:21:17.546Z,17.30
2018-05-13T19:23:44.984Z,17.30
2018-05-13T19:26:12.434Z,17.30
2018-05-13T19:28:39.890Z,17.40
2018-05-13T19:31:07.402Z,17.40
2018-05-13T19:33:34.850Z,17.50
2018-05-13T19:36:02.297Z,17.50
2018-05-13T19:38:29.743Z,17.60
2018-05-13T19:40:57.225Z,17.60
2018-05-13T19:43:24.754Z,17.60
2018-05-13T19:45:52.119Z,17.70
2018-05-13T19:48:19.554Z,17.70
2018-05-13T19:50:47.002Z,17.70
2018-05-13T19:53:14.514Z,17.70
2018-05-13T19:55:41.965Z,17.70
2018-05-13T19:58:09.412Z,17.70
2018-05-13T20:00:38.482Z,17.60
2018-05-13T20:03:06.082Z,17.50
2018-05-13T20:05:33.398Z,17.40
2018-05-13T20:08:00.843Z,17.30
2018-05-13T20:10:28.299Z,17.30
2018-05-13T20:12:55.769Z,17.30
2018-05-13T20:15:23.227Z,17.30
2018-05-13T20:17:50.687Z,17.30
2018-05-13T20:20:18.124Z,17.30
2018-05-13T20:22:57.254Z,17.30
2018-05-13T20:25:24.712Z,17.20
2018-05-13T20:27:52.167Z,17.10
2018-05-13T20:30:19.627Z,16.90
2018-05-13T20:32:47.094Z,16.80
2018-05-13T20:35:14.550Z,16.80
2018-05-13T20:37:41.999Z,16.70
2018-05-13T20:40:09.471Z,16.60
2018-05-13T20:42:36.917Z,16.50
2018-05-13T20:45:04.369Z,16.50
2018-05-13T20:47:31.832Z,16.50
2018-05-13T20:49:59.284Z,16.50
2018-05-13T20:52:26.731Z,16.60
2018-05-13T20:54:54.177Z,16.60
2018-05-13T20:57:21.652Z,16.60
2018-05-13T20:59:49.118Z,16.70
2018-05-13T21:02:16.565Z,16.70
2018-05-13T21:04:44.016Z,16.60
2018-05-13T21:07:11.455Z,16.60
2018-05-13T21:09:39.673Z,16.70
2018-05-13T21:12:07.130Z,16.70
2018-05-13T21:14:34.580Z,16.80
2018-05-13T21:17:02.018Z,16.80
2018-05-13T21:19:29.468Z,16.80
2018-05-13T21:21:56.933Z,16.90
2018-05-13T21:24:24.477Z,16.90
2018-05-13T21:26:51.870Z,16.90
2018-05-13T21:29:19.346Z,16.90
2018-05-13T21:31:46.876Z,17.00
2018-05-13T21:34:14.327Z,17.10
2018-05-13T21:36:41.794Z,17.20
2018-05-13T21:39:09.254Z,17.30
2018-05-13T21:41:36.689Z,17.40
2018-05-13T21:44:04.215Z,17.40
2018-05-13T21:46:31.674Z,17.50
2018-05-13T21:48:59.116Z,17.40
2018-05-13T21:51:26.557Z,17.40
2018-05-13T21:53:53.999Z,17.40
2018-05-13T21:56:21.446Z,17.30
2018-05-13T21:58:48.873Z,17.20
2018-05-13T22:01:16.349Z,17.20
2018-05-13T22:03:43.806Z,17.20
2018-05-13T22:06:11.257Z,17.20
2018-05-13T22:08:38.702Z,17.10
2018-05-13T22:11:06.134Z,17.00
2018-05-13T22:13:33.578Z,16.80
2018-05-13T22:16:01.014Z,16.80
2018-05-13T22:18:28.474Z,16.70
2018-05-13T22:20:55.947Z,16.80
2018-05-13T22:23:23.372Z,16.90
2018-05-13T22:25:50.829Z,16.80
2018-05-13T22:28:18.265Z,16.80
2018-05-13T22:30:45.761Z,16.80
2018-05-13T22:33:13.196Z,16.80
2018-05-13T22:35:40.661Z,16.70
2018-05-13T22:38:08.092Z,16.60
2018-05-13T22:40:35.546Z,16.40
2018-05-13T22:43:02.985Z,16.30
2018-05-13T22:45:30.610Z,16.20
2018-05-13T22:47:58.134Z,16.10
2018-05-13T22:50:25.588Z,15.90
2018-05-13T22:52:53.065Z,15.90
2018-05-13T22:55:20.492Z,15.90
2018-05-13T22:57:47.962Z,15.90
2018-05-13T23:00:15.412Z,15.90
2018-05-13T23:02:42.848Z,16.00
2018-05-13T23:05:10.292Z,16.00
2018-05-13T23:07:37.721Z,16.10
2018-05-13T23:10:05.179Z,16.10
2018-05-13T23:12:32.630Z,16.00
2018-05-13T23:15:00.080Z,16.00
2018-05-13T23:17:27.521Z,15.90
2018-05-13T23:19:54.975Z,15.90
2018-05-13T23:22:34.204Z,15.90
2018-05-13T23:25:01.719Z,15.80
2018-05-13T23:27:29.121Z,15.90
2018-05-13T23:29:56.554Z,15.90
2018-05-13T23:32:24.006Z,15.90
2018-05-13T23:34:51.509Z,15.90
2018-05-13T23:37:18.954Z,16.00
2018-05-13T23:39:46.420Z,16.00
2018-05-13T23:42:13.888Z,15.90
2018-05-13T23:44:41.544Z,15.80
2018-05-13T23:47:08.987Z,15.80
2018-05-13T23:49:36.423Z,15.80
2018-05-13T23:52:04.635Z,15.80
2018-05-13T23:54:32.084Z,15.70
2018-05-13T23:56:59.526Z,15.70
2018-05-13T23:59:26.982Z,15.60
